OE3GWU-13 Weather Reports


time (UTC)temp
C
wind
direction
speed
KPH
gust
KPH
rain 1hr
cm
rain 24hr
cm
rain mn
cm
humidity
%
barometer
mb
20190421081007 14 180 3.2 12.9 0.00 0.00 0.00 36 901.4
20190421072006 13 22 3.2 16.1 0.00 0.00 0.00 34 901.4
20190421071006 13 135 3.2 14.5 0.00 0.00 0.00 35 901.7
20190421063006 12 90 3.2 11.3 0.00 0.00 0.00 35 901.7
20190421055007 12 180 3.2 11.3 0.00 0.00 0.00 34 901.9
20190421052007 11 180 3.2 8.0 0.00 0.00 0.00 39 901.7
20190421051006 10 180 0.0 1.6 0.00 0.00 0.00 45 901.6
20190421050006 9 225 0.0 4.8 0.00 0.00 0.00 48 901.6
20190421040006 6 0 1.6 3.2 0.00 0.00 0.00 53 901.6
20190421032006 6 270 0.0 1.6 0.00 0.00 0.00 54 902.0
20190421030006 5 270 0.0 3.2 0.00 0.00 0.00 55 902.0
20190421024009 5 0 1.6 4.8 0.00 0.00 0.00 57 902.2
20190421022006 5 0 1.6 4.8 0.00 0.00 0.00 59 902.5
20190421020006 5 90 1.6 4.8 0.00 0.00 0.00 57 902.5
20190421015006 5 0 1.6 4.8 0.00 0.00 0.00 60 902.5
20190421014009 5 45 1.6 3.2 0.00 0.00 0.00 60 902.6
20190421012006 5 45 1.6 3.2 0.00 0.00 0.00 63 902.9
20190421011010 5 0 1.6 1.6 0.00 0.00 0.00 63 902.7
20190421010006 5 45 1.6 4.8 0.00 0.00 0.00 65 902.9
20190421005007 5 45 1.6 3.2 0.00 0.00 0.00 64 903.0
20190421003006 5 0 1.6 3.2 0.00 0.00 0.00 63 902.8
20190421001005 5 0 1.6 3.2 0.00 0.00 0.00 63 903.1
20190421000006 5 0 1.6 3.2 0.00 0.00 0.00 65 903.3
20190420235006 5 0 0.0 3.2 0.00 0.00 0.00 64 903.3
20190420234007 5 45 1.6 1.6 0.00 0.00 0.00 63 903.4
20190420233006 4 0 1.6 3.2 0.00 0.00 0.00 64 903.5
20190420224005 5 45 1.6 3.2 0.00 0.00 0.00 59 903.9
20190420214010 7 45 0.0 3.2 0.00 0.00 0.00 49 904.1
20190420200007 6 45 1.6 3.2 0.00 0.00 0.00 53 904.0
20190420195006 6 45 1.6 1.6 0.00 0.00 0.00 55 904.0
20190420190007 7 90 0.0 1.6 0.00 0.00 0.00 50 904.2
20190420185007 7 45 0.0 3.2 0.00 0.00 0.00 50 904.2
20190420161007 15 45 1.6 11.3 0.00 0.00 0.00 16 904.9
20190420154006 16 0 4.8 14.5 0.00 0.00 0.00 15 904.9
20190420153007 17 0 1.6 9.7 0.00 0.00 0.00 14 905.0
20190420151006 17 45 3.2 11.3 0.00 0.00 0.00 14 905.3
20190420150007 18 0 3.2 11.3 0.00 0.00 0.00 12 905.3
20190420145008 19 338 3.2 16.1 0.00 0.00 0.00 13 905.3
20190420144007 19 315 4.8 12.9 0.00 0.00 0.00 12 905.5
20190420142007 20 90 6.4 14.5 0.00 0.00 0.00 10 905.5
20190420141007 20 270 3.2 14.5 0.00 0.00 0.00 11 905.7
20190420140007 20 45 3.2 14.5 0.00 0.00 0.00 11 905.6
20190420135007 19 45 1.6 12.9 0.00 0.00 0.00 11 905.9
20190420134008 18 0 3.2 12.9 0.00 0.00 0.00 13 906.1
20190420132007 18 90 8.0 16.1 0.00 0.00 0.00 14 906.1
20190420131009 19 315 8.0 12.9 0.00 0.00 0.00 12 906.3
20190420130008 19 180 3.2 12.9 0.00 0.00 0.00 14 906.2
20190420124011 18 180 3.2 16.1 0.00 0.00 0.00 15 906.5
20190420122007 18 22 8.0 16.1 0.00 0.00 0.00 17 906.7
20190420120007 18 135 4.8 14.5 0.00 0.00 0.00 15 906.8
20190420114007 18 112 8.0 19.3 0.00 0.00 0.00 14 906.8
20190420113006 18 338 4.8 16.1 0.00 0.00 0.00 12 907.0
20190420102006 17 45 8.0 24.1 0.00 0.00 0.00 16 907.3
20190420100006 17 45 3.2 11.3 0.00 0.00 0.00 20 907.1
20190420093006 16 180 4.8 16.1 0.00 0.00 0.00 22 907.1
20190420090006 16 135 3.2 12.9 0.00 0.00 0.00 27 907.2
20190420085006 15 45 4.8 14.5 0.00 0.00 0.00 26 907.2
20190420082006 15 0 4.8 12.9 0.00 0.00 0.00 23 907.4